sensor_id;sensor_type;location;lat;lon;timestamp;temperature;humidity
23122;DHT22;11730;51.248;22.534;2023-03-23T00:01:03;10.10;95.40
23122;DHT22;11730;51.248;22.534;2023-03-23T00:03:29;10.20;96.20
23122;DHT22;11730;51.248;22.534;2023-03-23T00:05:58;10.20;95.80
23122;DHT22;11730;51.248;22.534;2023-03-23T00:08:33;10.00;95.90
23122;DHT22;11730;51.248;22.534;2023-03-23T00:10:59;9.90;96.00
23122;DHT22;11730;51.248;22.534;2023-03-23T00:13:28;10.00;95.60
23122;DHT22;11730;51.248;22.534;2023-03-23T00:15:53;10.20;96.80
23122;DHT22;11730;51.248;22.534;2023-03-23T00:18:20;10.00;95.80
23122;DHT22;11730;51.248;22.534;2023-03-23T00:20:48;10.10;96.10
23122;DHT22;11730;51.248;22.534;2023-03-23T00:23:24;10.10;95.80
23122;DHT22;11730;51.248;22.534;2023-03-23T00:25:55;10.20;96.40
23122;DHT22;11730;51.248;22.534;2023-03-23T00:28:26;10.20;96.50
23122;DHT22;11730;51.248;22.534;2023-03-23T00:31:04;10.30;95.90
23122;DHT22;11730;51.248;22.534;2023-03-23T00:33:34;10.20;95.90
23122;DHT22;11730;51.248;22.534;2023-03-23T00:36:07;10.20;96.10
23122;DHT22;11730;51.248;22.534;2023-03-23T00:38:35;10.10;96.80
23122;DHT22;11730;51.248;22.534;2023-03-23T00:41:01;10.00;96.50
23122;DHT22;11730;51.248;22.534;2023-03-23T00:43:31;10.10;97.10
23122;DHT22;11730;51.248;22.534;2023-03-23T00:45:57;10.20;97.00
23122;DHT22;11730;51.248;22.534;2023-03-23T00:48:27;10.00;96.40
23122;DHT22;11730;51.248;22.534;2023-03-23T00:53:20;10.00;97.10
23122;DHT22;11730;51.248;22.534;2023-03-23T00:55:47;9.80;97.20
23122;DHT22;11730;51.248;22.534;2023-03-23T00:58:14;9.70;97.00
23122;DHT22;11730;51.248;22.534;2023-03-23T01:00:42;10.10;96.50
23122;DHT22;11730;51.248;22.534;2023-03-23T01:03:08;10.40;97.30
23122;DHT22;11730;51.248;22.534;2023-03-23T01:05:39;10.00;97.00
23122;DHT22;11730;51.248;22.534;2023-03-23T01:08:06;9.80;97.20
23122;DHT22;11730;51.248;22.534;2023-03-23T01:10:32;9.50;97.80
23122;DHT22;11730;51.248;22.534;2023-03-23T01:12:59;9.50;97.90
23122;DHT22;11730;51.248;22.534;2023-03-23T01:15:27;9.70;98.00
23122;DHT22;11730;51.248;22.534;2023-03-23T01:17:53;9.80;97.90
23122;DHT22;11730;51.248;22.534;2023-03-23T01:20:19;9.80;97.90
23122;DHT22;11730;51.248;22.534;2023-03-23T01:25:13;9.80;97.50
23122;DHT22;11730;51.248;22.534;2023-03-23T01:27:39;10.10;98.20
23122;DHT22;11730;51.248;22.534;2023-03-23T01:30:07;9.80;97.60
23122;DHT22;11730;51.248;22.534;2023-03-23T01:35:01;9.70;97.30
23122;DHT22;11730;51.248;22.534;2023-03-23T01:37:26;9.90;98.00
23122;DHT22;11730;51.248;22.534;2023-03-23T01:39:53;9.60;98.10
23122;DHT22;11730;51.248;22.534;2023-03-23T01:42:24;9.80;97.70
23122;DHT22;11730;51.248;22.534;2023-03-23T01:47:19;10.10;97.50
23122;DHT22;11730;51.248;22.534;2023-03-23T01:49:49;9.90;97.50
23122;DHT22;11730;51.248;22.534;2023-03-23T01:52:23;10.20;97.70
23122;DHT22;11730;51.248;22.534;2023-03-23T01:54:53;10.00;97.20
23122;DHT22;11730;51.248;22.534;2023-03-23T01:57:22;10.10;97.30
23122;DHT22;11730;51.248;22.534;2023-03-23T01:59:51;10.00;97.30
23122;DHT22;11730;51.248;22.534;2023-03-23T02:02:20;9.80;97.90
23122;DHT22;11730;51.248;22.534;2023-03-23T02:04:46;9.80;97.90
23122;DHT22;11730;51.248;22.534;2023-03-23T02:07:14;10.10;98.10
23122;DHT22;11730;51.248;22.534;2023-03-23T02:09:41;10.10;97.80
23122;DHT22;11730;51.248;22.534;2023-03-23T02:12:07;10.20;97.90
23122;DHT22;11730;51.248;22.534;2023-03-23T02:14:33;10.00;97.90
23122;DHT22;11730;51.248;22.534;2023-03-23T02:22:11;10.00;98.10
23122;DHT22;11730;51.248;22.534;2023-03-23T02:36:26;9.80;97.50
23122;DHT22;11730;51.248;22.534;2023-03-23T02:39:09;9.90;97.60
23122;DHT22;11730;51.248;22.534;2023-03-23T02:41:47;9.90;97.80
23122;DHT22;11730;51.248;22.534;2023-03-23T02:44:15;9.90;97.80
23122;DHT22;11730;51.248;22.534;2023-03-23T02:49:11;9.90;97.70
23122;DHT22;11730;51.248;22.534;2023-03-23T02:51:38;9.50;98.50
23122;DHT22;11730;51.248;22.534;2023-03-23T02:54:05;9.60;98.40
23122;DHT22;11730;51.248;22.534;2023-03-23T02:56:32;9.70;98.70
23122;DHT22;11730;51.248;22.534;2023-03-23T02:58:59;9.80;98.80
23122;DHT22;11730;51.248;22.534;2023-03-23T03:03:52;9.60;98.60
23122;DHT22;11730;51.248;22.534;2023-03-23T03:06:30;10.70;98.50
23122;DHT22;11730;51.248;22.534;2023-03-23T03:12:09;9.70;98.80
23122;DHT22;11730;51.248;22.534;2023-03-23T03:15:05;9.60;98.60
23122;DHT22;11730;51.248;22.534;2023-03-23T03:17:36;9.70;98.60
23122;DHT22;11730;51.248;22.534;2023-03-23T03:20:07;9.90;98.50
23122;DHT22;11730;51.248;22.534;2023-03-23T03:22:38;9.60;98.80
23122;DHT22;11730;51.248;22.534;2023-03-23T03:25:05;9.60;99.10
23122;DHT22;11730;51.248;22.534;2023-03-23T03:27:32;9.70;99.00
23122;DHT22;11730;51.248;22.534;2023-03-23T03:29:59;9.50;98.90
23122;DHT22;11730;51.248;22.534;2023-03-23T03:32:37;9.60;98.90
23122;DHT22;11730;51.248;22.534;2023-03-23T03:35:05;9.60;99.30
23122;DHT22;11730;51.248;22.534;2023-03-23T03:37:38;9.60;99.00
23122;DHT22;11730;51.248;22.534;2023-03-23T03:40:10;9.50;99.10
23122;DHT22;11730;51.248;22.534;2023-03-23T03:42:41;9.70;98.90
23122;DHT22;11730;51.248;22.534;2023-03-23T03:45:13;9.60;98.90
23122;DHT22;11730;51.248;22.534;2023-03-23T03:50:06;9.90;99.10
23122;DHT22;11730;51.248;22.534;2023-03-23T03:52:32;9.20;99.20
23122;DHT22;11730;51.248;22.534;2023-03-23T03:54:58;9.70;99.30
23122;DHT22;11730;51.248;22.534;2023-03-23T03:59:51;9.60;99.00
23122;DHT22;11730;51.248;22.534;2023-03-23T04:02:18;9.60;98.80
23122;DHT22;11730;51.248;22.534;2023-03-23T04:04:49;9.80;99.10
23122;DHT22;11730;51.248;22.534;2023-03-23T04:07:15;9.70;99.10
23122;DHT22;11730;51.248;22.534;2023-03-23T04:09:43;9.60;99.40
23122;DHT22;11730;51.248;22.534;2023-03-23T04:12:12;9.10;99.30
23122;DHT22;11730;51.248;22.534;2023-03-23T04:17:04;9.60;99.40
23122;DHT22;11730;51.248;22.534;2023-03-23T04:19:32;9.20;99.30
23122;DHT22;11730;51.248;22.534;2023-03-23T04:21:59;9.30;99.60
23122;DHT22;11730;51.248;22.534;2023-03-23T04:24:25;9.40;99.40
23122;DHT22;11730;51.248;22.534;2023-03-23T04:36:39;9.40;99.60
23122;DHT22;11730;51.248;22.534;2023-03-23T04:39:06;9.60;99.90
23122;DHT22;11730;51.248;22.534;2023-03-23T04:41:36;9.60;99.20
23122;DHT22;11730;51.248;22.534;2023-03-23T04:44:02;9.60;99.60
23122;DHT22;11730;51.248;22.534;2023-03-23T04:46:28;9.30;99.90
23122;DHT22;11730;51.248;22.534;2023-03-23T04:51:28;9.60;99.90
23122;DHT22;11730;51.248;22.534;2023-03-23T04:53:54;9.30;99.90
23122;DHT22;11730;51.248;22.534;2023-03-23T04:56:20;9.50;99.90
23122;DHT22;11730;51.248;22.534;2023-03-23T04:58:47;9.50;99.90
23122;DHT22;11730;51.248;22.534;2023-03-23T05:01:13;9.30;99.90
23122;DHT22;11730;51.248;22.534;2023-03-23T05:08:36;9.10;99.90
23122;DHT22;11730;51.248;22.534;2023-03-23T05:11:05;9.30;99.90
23122;DHT22;11730;51.248;22.534;2023-03-23T05:13:31;9.30;99.90
23122;DHT22;11730;51.248;22.534;2023-03-23T05:18:23;9.40;99.90
23122;DHT22;11730;51.248;22.534;2023-03-23T05:23:18;9.40;99.80
23122;DHT22;11730;51.248;22.534;2023-03-23T05:25:57;9.40;99.90
23122;DHT22;11730;51.248;22.534;2023-03-23T05:28:26;9.50;99.80
23122;DHT22;11730;51.248;22.534;2023-03-23T05:33:19;9.30;99.60
23122;DHT22;11730;51.248;22.534;2023-03-23T05:35:47;10.30;99.90
23122;DHT22;11730;51.248;22.534;2023-03-23T05:38:13;9.80;99.70
23122;DHT22;11730;51.248;22.534;2023-03-23T05:43:08;9.70;99.50
23122;DHT22;11730;51.248;22.534;2023-03-23T05:48:00;9.60;99.50
23122;DHT22;11730;51.248;22.534;2023-03-23T05:50:26;9.80;99.60
23122;DHT22;11730;51.248;22.534;2023-03-23T05:52:55;9.60;99.60
23122;DHT22;11730;51.248;22.534;2023-03-23T05:55:21;9.80;99.10
23122;DHT22;11730;51.248;22.534;2023-03-23T06:00:13;10.30;98.80
23122;DHT22;11730;51.248;22.534;2023-03-23T06:02:40;10.30;98.50
23122;DHT22;11730;51.248;22.534;2023-03-23T06:05:10;10.40;98.00
23122;DHT22;11730;51.248;22.534;2023-03-23T06:10:07;10.90;97.30
23122;DHT22;11730;51.248;22.534;2023-03-23T06:12:35;11.00;97.10
23122;DHT22;11730;51.248;22.534;2023-03-23T06:17:29;11.40;96.10
23122;DHT22;11730;51.248;22.534;2023-03-23T06:19:55;12.10;95.50
23122;DHT22;11730;51.248;22.534;2023-03-23T06:22:21;11.60;95.10
23122;DHT22;11730;51.248;22.534;2023-03-23T06:24:46;12.20;94.50
23122;DHT22;11730;51.248;22.534;2023-03-23T06:27:12;12.50;94.10
23122;DHT22;11730;51.248;22.534;2023-03-23T06:29:39;12.90;93.60
23122;DHT22;11730;51.248;22.534;2023-03-23T06:32:05;12.70;92.80
23122;DHT22;11730;51.248;22.534;2023-03-23T06:34:31;12.90;92.80
23122;DHT22;11730;51.248;22.534;2023-03-23T06:39:24;12.20;93.80
23122;DHT22;11730;51.248;22.534;2023-03-23T06:44:17;12.10;93.50
23122;DHT22;11730;51.248;22.534;2023-03-23T06:51:36;12.00;94.40
23122;DHT22;11730;51.248;22.534;2023-03-23T06:54:03;11.80;94.50
23122;DHT22;11730;51.248;22.534;2023-03-23T06:58:55;11.90;94.60
23122;DHT22;11730;51.248;22.534;2023-03-23T07:01:21;11.90;94.80
23122;DHT22;11730;51.248;22.534;2023-03-23T07:03:47;12.50;94.60
23122;DHT22;11730;51.248;22.534;2023-03-23T07:13:35;13.20;92.30
23122;DHT22;11730;51.248;22.534;2023-03-23T07:16:05;13.10;92.20
23122;DHT22;11730;51.248;22.534;2023-03-23T07:18:31;12.80;92.70
23122;DHT22;11730;51.248;22.534;2023-03-23T07:28:16;13.50;92.50
23122;DHT22;11730;51.248;22.534;2023-03-23T07:30:42;13.70;90.70
23122;DHT22;11730;51.248;22.534;2023-03-23T07:33:08;14.40;90.20
23122;DHT22;11730;51.248;22.534;2023-03-23T07:35:35;13.80;90.40
23122;DHT22;11730;51.248;22.534;2023-03-23T07:38:01;13.90;90.00
23122;DHT22;11730;51.248;22.534;2023-03-23T07:42:56;14.70;87.60
23122;DHT22;11730;51.248;22.534;2023-03-23T07:45:23;14.10;89.20
23122;DHT22;11730;51.248;22.534;2023-03-23T07:47:49;14.70;88.80
23122;DHT22;11730;51.248;22.534;2023-03-23T07:52:42;13.60;90.30
23122;DHT22;11730;51.248;22.534;2023-03-23T07:55:11;13.60;90.80
23122;DHT22;11730;51.248;22.534;2023-03-23T07:57:44;13.80;90.50
23122;DHT22;11730;51.248;22.534;2023-03-23T08:00:10;13.30;90.50
23122;DHT22;11730;51.248;22.534;2023-03-23T08:02:42;13.40;91.00
23122;DHT22;11730;51.248;22.534;2023-03-23T08:05:08;13.60;90.90
23122;DHT22;11730;51.248;22.534;2023-03-23T08:07:34;13.30;90.90
23122;DHT22;11730;51.248;22.534;2023-03-23T08:10:01;13.20;91.70
23122;DHT22;11730;51.248;22.534;2023-03-23T08:12:26;13.50;91.40
23122;DHT22;11730;51.248;22.534;2023-03-23T08:17:20;13.10;91.30
23122;DHT22;11730;51.248;22.534;2023-03-23T08:19:46;13.80;91.40
23122;DHT22;11730;51.248;22.534;2023-03-23T08:22:11;13.80;91.10
23122;DHT22;11730;51.248;22.534;2023-03-23T08:24:37;13.30;91.30
23122;DHT22;11730;51.248;22.534;2023-03-23T08:34:24;13.30;91.30
23122;DHT22;11730;51.248;22.534;2023-03-23T08:39:17;13.40;91.60
23122;DHT22;11730;51.248;22.534;2023-03-23T08:41:44;13.80;91.00
23122;DHT22;11730;51.248;22.534;2023-03-23T08:46:37;14.00;91.60
23122;DHT22;11730;51.248;22.534;2023-03-23T08:56:21;14.20;90.50
23122;DHT22;11730;51.248;22.534;2023-03-23T08:58:48;14.00;90.80
23122;DHT22;11730;51.248;22.534;2023-03-23T09:01:14;14.00;90.60
23122;DHT22;11730;51.248;22.534;2023-03-23T09:03:40;13.80;90.70
23122;DHT22;11730;51.248;22.534;2023-03-23T09:06:07;13.40;91.10
23122;DHT22;11730;51.248;22.534;2023-03-23T09:08:34;14.00;91.40
23122;DHT22;11730;51.248;22.534;2023-03-23T09:11:09;14.10;90.70
23122;DHT22;11730;51.248;22.534;2023-03-23T09:13:36;14.00;90.90
23122;DHT22;11730;51.248;22.534;2023-03-23T09:16:03;14.30;91.00
23122;DHT22;11730;51.248;22.534;2023-03-23T09:18:30;14.40;90.70
23122;DHT22;11730;51.248;22.534;2023-03-23T09:20:58;14.20;90.90
23122;DHT22;11730;51.248;22.534;2023-03-23T09:28:18;14.30;90.60
23122;DHT22;11730;51.248;22.534;2023-03-23T09:30:44;14.50;90.60
23122;DHT22;11730;51.248;22.534;2023-03-23T09:33:11;15.20;90.60
23122;DHT22;11730;51.248;22.534;2023-03-23T09:35:37;14.50;90.90
23122;DHT22;11730;51.248;22.534;2023-03-23T09:38:05;14.70;90.90
23122;DHT22;11730;51.248;22.534;2023-03-23T09:43:28;14.30;90.30
23122;DHT22;11730;51.248;22.534;2023-03-23T09:49:15;14.70;90.10
23122;DHT22;11730;51.248;22.534;2023-03-23T09:52:12;14.80;90.10
23122;DHT22;11730;51.248;22.534;2023-03-23T09:54:40;14.70;90.00
23122;DHT22;11730;51.248;22.534;2023-03-23T10:00:14;14.80;89.60
23122;DHT22;11730;51.248;22.534;2023-03-23T10:02:55;14.50;89.70
23122;DHT22;11730;51.248;22.534;2023-03-23T10:05:39;15.10;89.00
23122;DHT22;11730;51.248;22.534;2023-03-23T10:08:13;15.20;88.10
23122;DHT22;11730;51.248;22.534;2023-03-23T10:16:17;15.30;87.50
23122;DHT22;11730;51.248;22.534;2023-03-23T10:18:58;15.30;87.50
23122;DHT22;11730;51.248;22.534;2023-03-23T10:21:27;15.40;86.80
23122;DHT22;11730;51.248;22.534;2023-03-23T10:24:01;15.30;86.10
23122;DHT22;11730;51.248;22.534;2023-03-23T10:27:01;15.60;86.50
23122;DHT22;11730;51.248;22.534;2023-03-23T10:29:35;15.40;86.80
23122;DHT22;11730;51.248;22.534;2023-03-23T10:32:09;15.10;87.20
23122;DHT22;11730;51.248;22.534;2023-03-23T10:37:24;15.60;87.00
23122;DHT22;11730;51.248;22.534;2023-03-23T10:39:58;15.70;87.30
23122;DHT22;11730;51.248;22.534;2023-03-23T10:42:43;15.80;86.70
23122;DHT22;11730;51.248;22.534;2023-03-23T10:45:29;15.90;86.30
23122;DHT22;11730;51.248;22.534;2023-03-23T10:48:22;15.70;86.40
23122;DHT22;11730;51.248;22.534;2023-03-23T10:50:54;15.60;87.50
23122;DHT22;11730;51.248;22.534;2023-03-23T10:53:23;15.70;87.00
23122;DHT22;11730;51.248;22.534;2023-03-23T10:55:50;15.90;87.00
23122;DHT22;11730;51.248;22.534;2023-03-23T10:58:30;15.90;85.20
23122;DHT22;11730;51.248;22.534;2023-03-23T11:00:58;15.90;85.20
23122;DHT22;11730;51.248;22.534;2023-03-23T11:03:46;16.10;86.10
23122;DHT22;11730;51.248;22.534;2023-03-23T11:06:32;16.00;86.30
23122;DHT22;11730;51.248;22.534;2023-03-23T11:09:11;16.20;85.30
23122;DHT22;11730;51.248;22.534;2023-03-23T11:11:40;16.10;85.50
23122;DHT22;11730;51.248;22.534;2023-03-23T11:14:19;16.10;85.80
23122;DHT22;11730;51.248;22.534;2023-03-23T11:16:51;16.00;84.30
23122;DHT22;11730;51.248;22.534;2023-03-23T11:19:29;16.20;84.70
23122;DHT22;11730;51.248;22.534;2023-03-23T11:22:08;16.30;84.30
23122;DHT22;11730;51.248;22.534;2023-03-23T11:24:44;16.00;83.70
23122;DHT22;11730;51.248;22.534;2023-03-23T11:29:49;16.00;83.70
23122;DHT22;11730;51.248;22.534;2023-03-23T11:34:48;16.10;84.70
23122;DHT22;11730;51.248;22.534;2023-03-23T11:42:23;16.30;83.30
23122;DHT22;11730;51.248;22.534;2023-03-23T11:44:54;16.20;82.60
23122;DHT22;11730;51.248;22.534;2023-03-23T11:47:35;16.40;82.50
23122;DHT22;11730;51.248;22.534;2023-03-23T11:58:12;16.40;82.20
23122;DHT22;11730;51.248;22.534;2023-03-23T12:06:32;16.50;82.20
23122;DHT22;11730;51.248;22.534;2023-03-23T12:09:10;16.50;82.60
23122;DHT22;11730;51.248;22.534;2023-03-23T12:12:00;16.40;82.90
23122;DHT22;11730;51.248;22.534;2023-03-23T12:30:59;18.00;76.80
23122;DHT22;11730;51.248;22.534;2023-03-23T12:36:32;18.30;73.70
23122;DHT22;11730;51.248;22.534;2023-03-23T12:42:17;18.60;71.40
23122;DHT22;11730;51.248;22.534;2023-03-23T12:47:46;18.90;70.80
23122;DHT22;11730;51.248;22.534;2023-03-23T12:52:49;19.60;67.90
23122;DHT22;11730;51.248;22.534;2023-03-23T12:55:30;19.40;67.40
23122;DHT22;11730;51.248;22.534;2023-03-23T12:58:24;19.40;66.50
23122;DHT22;11730;51.248;22.534;2023-03-23T13:00:56;19.30;66.60
23122;DHT22;11730;51.248;22.534;2023-03-23T13:03:42;18.70;67.10
23122;DHT22;11730;51.248;22.534;2023-03-23T13:06:31;19.00;68.80
23122;DHT22;11730;51.248;22.534;2023-03-23T13:12:05;18.80;66.80
23122;DHT22;11730;51.248;22.534;2023-03-23T13:28:02;18.20;66.80
23122;DHT22;11730;51.248;22.534;2023-03-23T13:30:29;18.10;66.90
23122;DHT22;11730;51.248;22.534;2023-03-23T13:33:05;18.40;66.50
23122;DHT22;11730;51.248;22.534;2023-03-23T13:35:36;18.10;66.20
23122;DHT22;11730;51.248;22.534;2023-03-23T13:38:25;18.70;65.50
23122;DHT22;11730;51.248;22.534;2023-03-23T13:40:53;19.20;65.80
23122;DHT22;11730;51.248;22.534;2023-03-23T13:43:31;19.50;64.20
23122;DHT22;11730;51.248;22.534;2023-03-23T13:46:08;19.90;63.40
23122;DHT22;11730;51.248;22.534;2023-03-23T13:48:47;20.30;62.60
23122;DHT22;11730;51.248;22.534;2023-03-23T13:54:19;19.00;62.80
23122;DHT22;11730;51.248;22.534;2023-03-23T13:56:55;19.00;62.80
23122;DHT22;11730;51.248;22.534;2023-03-23T14:01:56;18.50;63.80
23122;DHT22;11730;51.248;22.534;2023-03-23T14:04:30;18.20;64.30
23122;DHT22;11730;51.248;22.534;2023-03-23T14:06:57;18.40;64.30
23122;DHT22;11730;51.248;22.534;2023-03-23T14:09:37;18.40;64.30
23122;DHT22;11730;51.248;22.534;2023-03-23T14:12:13;18.30;64.60
23122;DHT22;11730;51.248;22.534;2023-03-23T14:14:57;17.80;65.20
23122;DHT22;11730;51.248;22.534;2023-03-23T14:17:28;18.00;65.60
23122;DHT22;11730;51.248;22.534;2023-03-23T14:19:57;17.90;65.90
23122;DHT22;11730;51.248;22.534;2023-03-23T14:24:52;17.50;66.90
23122;DHT22;11730;51.248;22.534;2023-03-23T14:27:23;17.40;67.20
23122;DHT22;11730;51.248;22.534;2023-03-23T14:30:04;17.60;67.30
23122;DHT22;11730;51.248;22.534;2023-03-23T14:32:31;17.50;67.70
23122;DHT22;11730;51.248;22.534;2023-03-23T14:34:59;17.60;67.60
23122;DHT22;11730;51.248;22.534;2023-03-23T14:37:25;17.40;68.50
23122;DHT22;11730;51.248;22.534;2023-03-23T14:39:53;17.60;68.60
23122;DHT22;11730;51.248;22.534;2023-03-23T14:42:33;17.40;68.90
23122;DHT22;11730;51.248;22.534;2023-03-23T14:45:01;17.30;69.20
23122;DHT22;11730;51.248;22.534;2023-03-23T14:47:54;17.20;69.50
23122;DHT22;11730;51.248;22.534;2023-03-23T14:53:11;17.20;70.10
23122;DHT22;11730;51.248;22.534;2023-03-23T14:58:08;17.10;70.00
23122;DHT22;11730;51.248;22.534;2023-03-23T15:00:42;17.10;70.60
23122;DHT22;11730;51.248;22.534;2023-03-23T15:03:12;17.20;70.80
23122;DHT22;11730;51.248;22.534;2023-03-23T15:06:00;16.80;70.20
23122;DHT22;11730;51.248;22.534;2023-03-23T15:08:33;17.00;70.20
23122;DHT22;11730;51.248;22.534;2023-03-23T15:13:52;17.20;68.00
23122;DHT22;11730;51.248;22.534;2023-03-23T15:16:30;17.30;68.40
23122;DHT22;11730;51.248;22.534;2023-03-23T15:19:06;17.30;68.40
23122;DHT22;11730;51.248;22.534;2023-03-23T15:24:34;17.20;67.90
23122;DHT22;11730;51.248;22.534;2023-03-23T15:27:28;17.40;68.20
23122;DHT22;11730;51.248;22.534;2023-03-23T15:32:36;17.20;66.80
23122;DHT22;11730;51.248;22.534;2023-03-23T15:35:10;17.20;66.90
23122;DHT22;11730;51.248;22.534;2023-03-23T15:37:42;16.90;66.30
23122;DHT22;11730;51.248;22.534;2023-03-23T15:40:22;17.00;66.40
23122;DHT22;11730;51.248;22.534;2023-03-23T15:42:50;17.10;67.00
23122;DHT22;11730;51.248;22.534;2023-03-23T15:45:35;17.10;66.80
23122;DHT22;11730;51.248;22.534;2023-03-23T15:48:11;17.10;67.00
23122;DHT22;11730;51.248;22.534;2023-03-23T15:50:40;17.10;67.00
23122;DHT22;11730;51.248;22.534;2023-03-23T15:55:47;16.80;67.80
23122;DHT22;11730;51.248;22.534;2023-03-23T16:00:42;16.90;68.40
23122;DHT22;11730;51.248;22.534;2023-03-23T16:03:15;16.80;68.50
23122;DHT22;11730;51.248;22.534;2023-03-23T16:08:11;16.90;69.70
23122;DHT22;11730;51.248;22.534;2023-03-23T16:10:38;16.90;69.00
23122;DHT22;11730;51.248;22.534;2023-03-23T16:13:05;17.00;69.30
23122;DHT22;11730;51.248;22.534;2023-03-23T16:15:32;16.50;69.80
23122;DHT22;11730;51.248;22.534;2023-03-23T16:20:28;16.70;70.90
23122;DHT22;11730;51.248;22.534;2023-03-23T16:22:56;16.90;71.10
23122;DHT22;11730;51.248;22.534;2023-03-23T16:25:23;16.60;71.00
23122;DHT22;11730;51.248;22.534;2023-03-23T16:30:23;16.40;71.10
23122;DHT22;11730;51.248;22.534;2023-03-23T16:32:50;16.40;71.20
23122;DHT22;11730;51.248;22.534;2023-03-23T16:35:18;16.40;71.10
23122;DHT22;11730;51.248;22.534;2023-03-23T16:37:50;16.40;71.50
23122;DHT22;11730;51.248;22.534;2023-03-23T16:40:34;16.30;71.90
23122;DHT22;11730;51.248;22.534;2023-03-23T16:45:35;16.10;72.60
23122;DHT22;11730;51.248;22.534;2023-03-23T16:50:32;16.10;73.00
23122;DHT22;11730;51.248;22.534;2023-03-23T16:52:59;16.10;73.50
23122;DHT22;11730;51.248;22.534;2023-03-23T16:57:54;16.00;74.10
23122;DHT22;11730;51.248;22.534;2023-03-23T17:00:35;16.00;74.40
23122;DHT22;11730;51.248;22.534;2023-03-23T17:05:29;15.80;75.00
23122;DHT22;11730;51.248;22.534;2023-03-23T17:10:26;15.70;75.70
23122;DHT22;11730;51.248;22.534;2023-03-23T17:12:54;15.60;76.00
23122;DHT22;11730;51.248;22.534;2023-03-23T17:15:21;15.60;76.30
23122;DHT22;11730;51.248;22.534;2023-03-23T17:20:18;15.70;76.80
23122;DHT22;11730;51.248;22.534;2023-03-23T17:22:45;15.40;76.90
23122;DHT22;11730;51.248;22.534;2023-03-23T17:27:39;15.50;77.30
23122;DHT22;11730;51.248;22.534;2023-03-23T17:30:08;15.40;77.20
23122;DHT22;11730;51.248;22.534;2023-03-23T17:32:36;15.20;77.40
23122;DHT22;11730;51.248;22.534;2023-03-23T17:35:04;15.10;77.50
23122;DHT22;11730;51.248;22.534;2023-03-23T17:37:32;15.40;77.40
23122;DHT22;11730;51.248;22.534;2023-03-23T17:39:59;15.40;77.30
23122;DHT22;11730;51.248;22.534;2023-03-23T17:49:49;15.60;78.60
23122;DHT22;11730;51.248;22.534;2023-03-23T17:54:44;15.20;79.00
23122;DHT22;11730;51.248;22.534;2023-03-23T18:04:34;15.10;80.10
23122;DHT22;11730;51.248;22.534;2023-03-23T18:09:28;15.10;80.10
23122;DHT22;11730;51.248;22.534;2023-03-23T18:11:55;15.10;80.20
23122;DHT22;11730;51.248;22.534;2023-03-23T18:14:22;15.00;80.20
23122;DHT22;11730;51.248;22.534;2023-03-23T18:19:17;15.00;80.40
23122;DHT22;11730;51.248;22.534;2023-03-23T18:21:43;14.60;80.30
23122;DHT22;11730;51.248;22.534;2023-03-23T18:24:12;14.80;80.50
23122;DHT22;11730;51.248;22.534;2023-03-23T18:26:39;14.60;80.40
23122;DHT22;11730;51.248;22.534;2023-03-23T18:29:06;14.50;80.90
23122;DHT22;11730;51.248;22.534;2023-03-23T18:31:33;14.90;81.40
23122;DHT22;11730;51.248;22.534;2023-03-23T18:34:06;14.80;81.20
23122;DHT22;11730;51.248;22.534;2023-03-23T18:39:01;14.80;81.60
23122;DHT22;11730;51.248;22.534;2023-03-23T18:41:29;14.90;82.80
23122;DHT22;11730;51.248;22.534;2023-03-23T18:46:24;14.80;84.60
23122;DHT22;11730;51.248;22.534;2023-03-23T18:48:51;14.90;85.30
23122;DHT22;11730;51.248;22.534;2023-03-23T18:56:14;14.60;87.20
23122;DHT22;11730;51.248;22.534;2023-03-23T18:58:42;14.50;88.10
23122;DHT22;11730;51.248;22.534;2023-03-23T19:01:12;14.30;89.10
23122;DHT22;11730;51.248;22.534;2023-03-23T19:03:39;14.20;89.00
23122;DHT22;11730;51.248;22.534;2023-03-23T19:06:13;14.50;90.00
23122;DHT22;11730;51.248;22.534;2023-03-23T19:16:19;14.20;91.50
23122;DHT22;11730;51.248;22.534;2023-03-23T19:18:46;13.90;91.00
23122;DHT22;11730;51.248;22.534;2023-03-23T19:23:46;14.00;91.80
23122;DHT22;11730;51.248;22.534;2023-03-23T19:26:22;13.70;92.50
23122;DHT22;11730;51.248;22.534;2023-03-23T19:28:49;13.80;92.80
23122;DHT22;11730;51.248;22.534;2023-03-23T19:33:53;13.60;93.10
23122;DHT22;11730;51.248;22.534;2023-03-23T19:36:21;13.50;93.40
23122;DHT22;11730;51.248;22.534;2023-03-23T19:38:49;13.60;93.20
23122;DHT22;11730;51.248;22.534;2023-03-23T19:43:45;13.70;93.60
23122;DHT22;11730;51.248;22.534;2023-03-23T19:46:12;13.70;93.40
23122;DHT22;11730;51.248;22.534;2023-03-23T19:48:40;13.20;93.60
23122;DHT22;11730;51.248;22.534;2023-03-23T19:51:08;13.70;92.90
23122;DHT22;11730;51.248;22.534;2023-03-23T19:53:37;13.40;92.70
23122;DHT22;11730;51.248;22.534;2023-03-23T19:56:15;13.80;92.70
23122;DHT22;11730;51.248;22.534;2023-03-23T20:01:09;13.90;92.60
23122;DHT22;11730;51.248;22.534;2023-03-23T20:06:07;13.90;92.60
23122;DHT22;11730;51.248;22.534;2023-03-23T20:08:39;14.00;92.40
23122;DHT22;11730;51.248;22.534;2023-03-23T20:11:11;13.80;92.50
23122;DHT22;11730;51.248;22.534;2023-03-23T20:13:39;13.60;92.40
23122;DHT22;11730;51.248;22.534;2023-03-23T20:16:07;13.90;92.50
23122;DHT22;11730;51.248;22.534;2023-03-23T20:18:35;14.00;92.50
23122;DHT22;11730;51.248;22.534;2023-03-23T20:21:08;13.80;92.40
23122;DHT22;11730;51.248;22.534;2023-03-23T20:23:37;13.90;92.50
23122;DHT22;11730;51.248;22.534;2023-03-23T20:26:15;13.50;92.20
23122;DHT22;11730;51.248;22.534;2023-03-23T20:28:43;13.70;92.50
23122;DHT22;11730;51.248;22.534;2023-03-23T20:31:17;13.80;92.50
23122;DHT22;11730;51.248;22.534;2023-03-23T20:33:52;13.90;92.80
23122;DHT22;11730;51.248;22.534;2023-03-23T20:38:55;13.70;92.40
23122;DHT22;11730;51.248;22.534;2023-03-23T20:41:26;13.40;92.50
23122;DHT22;11730;51.248;22.534;2023-03-23T20:43:54;13.80;92.70
23122;DHT22;11730;51.248;22.534;2023-03-23T20:53:44;13.80;92.90
23122;DHT22;11730;51.248;22.534;2023-03-23T20:56:12;13.80;93.20
23122;DHT22;11730;51.248;22.534;2023-03-23T20:58:39;13.70;93.30
23122;DHT22;11730;51.248;22.534;2023-03-23T21:03:37;13.50;93.60
23122;DHT22;11730;51.248;22.534;2023-03-23T21:06:06;13.20;93.80
23122;DHT22;11730;51.248;22.534;2023-03-23T21:08:35;13.50;93.70
23122;DHT22;11730;51.248;22.534;2023-03-23T21:11:04;13.60;93.90
23122;DHT22;11730;51.248;22.534;2023-03-23T21:13:33;13.50;93.60
23122;DHT22;11730;51.248;22.534;2023-03-23T21:16:01;13.60;93.20
23122;DHT22;11730;51.248;22.534;2023-03-23T21:20:56;13.50;93.20